createdAt,value
2023-03-13T00:01:46.003Z,0.20
2023-03-13T00:04:14.651Z,0.10
2023-03-13T00:06:43.176Z,0.10
2023-03-13T00:09:12.504Z,0.00
2023-03-13T00:11:40.650Z,0.00
2023-03-13T00:14:08.879Z,0.00
2023-03-13T00:16:38.132Z,0.00
2023-03-13T00:19:07.489Z,0.00
2023-03-13T00:21:37.858Z,0.00
2023-03-13T00:24:06.149Z,-0.02
2023-03-13T00:26:34.205Z,0.00
2023-03-13T00:29:02.338Z,-0.10
2023-03-13T00:31:31.353Z,-0.10
2023-03-13T00:34:01.378Z,-0.10
2023-03-13T00:36:31.435Z,-0.10
2023-03-13T00:38:59.649Z,-0.16
2023-03-13T00:41:30.052Z,-0.20
2023-03-13T00:43:58.433Z,-0.26
2023-03-13T00:46:28.154Z,-0.22
2023-03-13T00:48:56.611Z,-0.20
2023-03-13T00:51:27.174Z,-0.20
2023-03-13T00:53:56.302Z,-0.18
2023-03-13T00:56:24.303Z,-0.20
2023-03-13T00:58:52.594Z,-0.18
2023-03-13T01:01:23.207Z,-0.20
2023-03-13T01:04:05.284Z,-0.20
2023-03-13T01:06:35.215Z,-0.20
2023-03-13T01:09:04.605Z,-0.20
2023-03-13T01:11:35.240Z,-0.20
2023-03-13T01:14:05.229Z,-0.20
2023-03-13T01:16:34.413Z,-0.20
2023-03-13T01:19:05.271Z,-0.18
2023-03-13T01:21:33.504Z,-0.18
2023-03-13T01:24:01.619Z,-0.12
2023-03-13T01:26:29.791Z,-0.10
2023-03-13T01:28:57.917Z,-0.20
2023-03-13T01:31:30.193Z,-0.20
2023-03-13T01:34:00.640Z,-0.26
2023-03-13T01:36:28.658Z,-0.20
2023-03-13T01:38:58.145Z,-0.20
2023-03-13T01:41:28.629Z,-0.30
2023-03-13T01:43:56.937Z,-0.30
2023-03-13T01:46:29.358Z,-0.30
2023-03-13T01:49:07.089Z,-0.36
2023-03-13T01:51:55.446Z,-0.40
2023-03-13T01:54:40.249Z,-0.30
2023-03-13T01:57:08.279Z,-0.30
2023-03-13T01:59:48.725Z,-0.30
2023-03-13T02:02:16.757Z,-0.40
2023-03-13T02:04:51.045Z,-0.40
2023-03-13T02:07:25.342Z,-0.46
2023-03-13T02:09:53.719Z,-0.44
2023-03-13T02:12:30.864Z,-0.50
2023-03-13T02:14:59.705Z,-0.50
2023-03-13T02:17:29.402Z,-0.50
2023-03-13T02:19:57.490Z,-0.40
2023-03-13T02:22:36.000Z,-0.44
2023-03-13T02:25:24.114Z,-0.40
2023-03-13T02:28:03.698Z,-0.32
2023-03-13T02:30:33.675Z,-0.40
2023-03-13T02:33:01.932Z,-0.40
2023-03-13T02:35:30.245Z,-0.34
2023-03-13T02:38:03.364Z,-0.30
2023-03-13T02:40:33.698Z,-0.30
2023-03-13T02:43:05.488Z,-0.34
2023-03-13T02:45:33.635Z,-0.32
2023-03-13T02:48:01.744Z,-0.30
2023-03-13T02:50:29.836Z,-0.28
2023-03-13T02:53:03.484Z,-0.20
2023-03-13T02:55:35.427Z,-0.18
2023-03-13T02:58:03.859Z,-0.20
2023-03-13T03:00:35.957Z,-0.20
2023-03-13T03:03:04.143Z,-0.20
2023-03-13T03:05:32.313Z,-0.20
2023-03-13T03:08:00.408Z,-0.20
2023-03-13T03:10:29.442Z,-0.20
2023-03-13T03:12:57.469Z,-0.30
2023-03-13T03:15:25.617Z,-0.40
2023-03-13T03:17:53.770Z,-0.50
2023-03-13T03:20:21.809Z,-0.70
2023-03-13T03:22:49.878Z,-0.70
2023-03-13T03:25:17.993Z,-0.70
2023-03-13T03:27:46.083Z,-0.80
2023-03-13T03:30:14.493Z,-0.80
2023-03-13T03:32:43.340Z,-0.80
2023-03-13T03:35:11.493Z,-0.80
2023-03-13T03:37:39.597Z,-0.76
2023-03-13T03:40:08.206Z,-0.74
2023-03-13T03:42:36.584Z,-0.74
2023-03-13T03:45:05.432Z,-0.70
2023-03-13T03:47:33.551Z,-0.72
2023-03-13T03:50:03.827Z,-0.60
2023-03-13T03:52:36.241Z,-0.70
2023-03-13T03:55:04.870Z,-0.70
2023-03-13T03:57:33.224Z,-0.80
2023-03-13T04:00:01.618Z,-0.80
2023-03-13T04:02:30.497Z,-0.80
2023-03-13T04:04:58.717Z,-0.80
2023-03-13T04:07:32.449Z,-0.78
2023-03-13T04:10:00.814Z,-0.70
2023-03-13T04:12:36.263Z,-0.72
2023-03-13T04:15:04.724Z,-0.80
2023-03-13T04:17:33.561Z,-0.70
2023-03-13T04:20:02.260Z,-0.70
2023-03-13T04:22:31.656Z,-0.80
2023-03-13T04:25:00.585Z,-0.70
2023-03-13T04:27:30.941Z,-0.62
2023-03-13T04:29:58.913Z,-0.60
2023-03-13T04:32:42.040Z,-0.60
2023-03-13T04:35:22.285Z,-0.60
2023-03-13T04:38:09.068Z,-0.50
2023-03-13T04:41:00.161Z,-0.44
2023-03-13T04:43:41.895Z,-0.40
2023-03-13T04:46:18.925Z,-0.40
2023-03-13T04:49:08.973Z,-0.42
2023-03-13T04:51:53.317Z,-0.40
2023-03-13T04:54:41.582Z,-0.50
2023-03-13T04:57:27.161Z,-0.50
2023-03-13T05:00:14.133Z,-0.50
2023-03-13T05:02:53.339Z,-0.52
2023-03-13T05:05:24.179Z,-0.50
2023-03-13T05:08:15.378Z,-0.52
2023-03-13T05:11:02.969Z,-0.50
2023-03-13T05:14:04.629Z,-0.50
2023-03-13T05:16:51.385Z,-0.48
2023-03-13T05:19:48.948Z,-0.42
2023-03-13T05:22:42.938Z,-0.40
2023-03-13T05:25:14.045Z,-0.30
2023-03-13T05:28:02.295Z,-0.30
2023-03-13T05:30:39.977Z,-0.14
2023-03-13T05:33:28.275Z,-0.20
2023-03-13T05:36:15.314Z,-0.20
2023-03-13T05:39:09.438Z,-0.30
2023-03-13T05:41:49.999Z,-0.28
2023-03-13T05:44:40.968Z,-0.30
2023-03-13T05:47:31.825Z,-0.40
2023-03-13T05:50:18.594Z,-0.30
2023-03-13T05:53:02.865Z,-0.10
2023-03-13T05:55:42.221Z,0.00
2023-03-13T05:58:36.765Z,0.18
2023-03-13T06:01:37.170Z,0.20
2023-03-13T06:04:13.460Z,0.22
2023-03-13T06:06:42.241Z,0.34
2023-03-13T06:09:11.904Z,0.40
2023-03-13T06:11:41.779Z,0.40
2023-03-13T06:14:10.188Z,0.60
2023-03-13T06:16:58.122Z,0.64
2023-03-13T06:19:28.461Z,0.80
2023-03-13T06:21:56.677Z,0.84
2023-03-13T06:24:24.757Z,0.88
2023-03-13T06:26:52.925Z,0.90
2023-03-13T06:29:21.249Z,0.90
2023-03-13T06:31:49.276Z,0.90
2023-03-13T06:34:17.763Z,1.00
2023-03-13T06:36:45.938Z,1.14
2023-03-13T06:39:14.148Z,1.30
2023-03-13T06:41:42.178Z,1.50
2023-03-13T06:44:11.583Z,1.56
2023-03-13T06:46:39.639Z,1.80
2023-03-13T06:49:07.934Z,1.96
2023-03-13T06:51:36.518Z,2.10
2023-03-13T06:54:04.591Z,2.48
2023-03-13T06:56:32.683Z,2.76
2023-03-13T06:59:00.715Z,2.94
2023-03-13T07:01:28.928Z,3.10
2023-03-13T07:03:57.062Z,3.20
2023-03-13T07:06:25.101Z,3.12
2023-03-13T07:08:53.124Z,3.24
2023-03-13T07:11:21.287Z,3.50
2023-03-13T07:13:49.378Z,3.82
2023-03-13T07:16:18.393Z,3.96
2023-03-13T07:18:46.561Z,4.56
2023-03-13T07:21:14.848Z,4.60
2023-03-13T07:23:42.953Z,4.70
2023-03-13T07:26:12.942Z,4.70
2023-03-13T07:28:41.598Z,4.70
2023-03-13T07:31:17.585Z,4.76
2023-03-13T07:33:45.922Z,5.02
2023-03-13T07:36:15.360Z,5.70
2023-03-13T07:38:46.276Z,6.30
2023-03-13T07:41:14.755Z,7.04
2023-03-13T07:43:43.007Z,7.38
2023-03-13T07:46:13.252Z,7.92
2023-03-13T07:48:42.419Z,7.90
2023-03-13T07:51:14.744Z,7.80
2023-03-13T07:53:44.193Z,7.84
2023-03-13T07:56:13.836Z,7.62
2023-03-13T07:58:42.521Z,7.60
2023-03-13T08:01:24.318Z,7.68
2023-03-13T08:03:55.653Z,7.60
2023-03-13T08:06:24.671Z,7.60
2023-03-13T08:08:53.682Z,7.60
2023-03-13T08:11:23.255Z,7.52
2023-03-13T08:13:52.051Z,7.42
2023-03-13T08:16:27.626Z,7.70
2023-03-13T08:18:57.258Z,7.94
2023-03-13T08:21:27.040Z,8.26
2023-03-13T08:23:56.959Z,8.76
2023-03-13T08:26:28.225Z,8.80
2023-03-13T08:29:00.847Z,9.06
2023-03-13T08:31:30.869Z,8.88
2023-03-13T08:33:59.596Z,9.72
2023-03-13T08:36:32.989Z,10.44
2023-03-13T08:39:02.678Z,10.90
2023-03-13T08:41:33.967Z,11.34
2023-03-13T08:44:02.625Z,11.90
2023-03-13T08:46:31.744Z,11.68
2023-03-13T08:48:59.846Z,12.12
2023-03-13T08:51:28.506Z,12.66
2023-03-13T08:53:56.926Z,13.20
2023-03-13T08:56:26.837Z,13.38
2023-03-13T08:58:56.223Z,13.80
2023-03-13T09:01:25.973Z,13.92
2023-03-13T09:03:54.031Z,13.82
2023-03-13T09:06:22.304Z,13.86
2023-03-13T09:08:50.416Z,14.20
2023-03-13T09:11:19.892Z,14.30
2023-03-13T09:13:49.474Z,14.32
2023-03-13T09:16:23.134Z,14.60
2023-03-13T09:18:51.419Z,14.70
2023-03-13T09:21:27.318Z,14.30
2023-03-13T09:23:55.599Z,15.24
2023-03-13T09:26:23.980Z,15.10
2023-03-13T09:28:52.844Z,15.00
2023-03-13T09:31:23.221Z,14.56
2023-03-13T09:33:51.491Z,14.18
2023-03-13T09:36:22.143Z,13.86
2023-03-13T09:38:51.932Z,13.54
2023-03-13T09:41:32.097Z,13.84
2023-03-13T09:44:18.011Z,13.80
2023-03-13T09:46:50.011Z,14.00
2023-03-13T09:49:30.906Z,14.12
2023-03-13T09:52:04.019Z,14.20
2023-03-13T09:54:39.998Z,14.44
2023-03-13T09:57:10.935Z,14.70
2023-03-13T09:59:46.857Z,14.40
2023-03-13T10:02:31.829Z,14.48
2023-03-13T10:05:23.097Z,15.52
2023-03-13T10:07:51.294Z,16.14
2023-03-13T10:10:21.863Z,16.08
2023-03-13T10:12:52.287Z,15.74
2023-03-13T10:15:40.154Z,16.16
2023-03-13T10:18:17.668Z,16.68
2023-03-13T10:20:46.674Z,17.12
2023-03-13T10:23:48.619Z,17.20
2023-03-13T10:26:19.085Z,17.74
2023-03-13T10:28:48.504Z,18.30
2023-03-13T10:31:32.262Z,18.70
2023-03-13T10:34:07.926Z,18.70
2023-03-13T10:36:49.565Z,19.24
2023-03-13T10:39:19.221Z,19.40
2023-03-13T10:41:48.667Z,19.28
2023-03-13T10:44:18.524Z,19.50
2023-03-13T10:46:48.017Z,19.48
2023-03-13T10:49:23.405Z,19.24
2023-03-13T10:51:56.281Z,19.60
2023-03-13T10:54:25.526Z,19.76
2023-03-13T10:57:09.359Z,19.52
2023-03-13T10:59:43.989Z,19.80
2023-03-13T11:02:38.732Z,20.36
2023-03-13T11:05:26.309Z,20.16
2023-03-13T11:07:55.091Z,20.14
2023-03-13T11:10:30.152Z,20.70
2023-03-13T11:12:58.931Z,20.52
2023-03-13T11:15:37.731Z,20.80
2023-03-13T11:18:16.025Z,20.50
2023-03-13T11:20:45.472Z,20.50
2023-03-13T11:23:28.025Z,20.54
2023-03-13T11:26:11.596Z,21.26
2023-03-13T11:28:57.874Z,21.12
2023-03-13T11:31:32.227Z,21.24
2023-03-13T11:34:08.525Z,20.20
2023-03-13T11:36:43.776Z,20.30
2023-03-13T11:39:30.484Z,20.38
2023-03-13T11:42:18.958Z,20.64
2023-03-13T11:45:05.992Z,20.78
2023-03-13T11:47:43.344Z,20.90
2023-03-13T11:50:30.174Z,21.30
2023-03-13T11:53:52.295Z,21.16
2023-03-13T11:56:23.066Z,21.46
2023-03-13T11:59:00.953Z,21.48
2023-03-13T12:01:32.823Z,21.74
2023-03-13T12:04:05.821Z,21.76
2023-03-13T12:07:05.405Z,21.52
2023-03-13T12:09:37.603Z,20.80
2023-03-13T12:12:15.783Z,20.56
2023-03-13T12:14:47.500Z,20.50
2023-03-13T12:17:19.071Z,20.88
2023-03-13T12:20:09.919Z,20.56
2023-03-13T12:23:02.795Z,20.60
2023-03-13T12:25:36.126Z,20.74
2023-03-13T12:28:16.988Z,20.98
2023-03-13T12:30:47.850Z,21.48
2023-03-13T12:33:36.365Z,21.48
2023-03-13T12:36:14.007Z,21.66
2023-03-13T12:38:52.663Z,21.70
2023-03-13T12:42:15.517Z,21.30
2023-03-13T12:44:43.631Z,20.66
2023-03-13T12:47:33.638Z,20.64
2023-03-13T12:50:24.173Z,20.74
2023-03-13T12:53:19.077Z,19.54
2023-03-13T12:56:05.921Z,19.80
2023-03-13T12:58:48.159Z,20.12
2023-03-13T13:01:29.597Z,20.20
2023-03-13T13:04:06.241Z,20.32
2023-03-13T13:07:00.642Z,20.20
2023-03-13T13:09:30.902Z,19.72
2023-03-13T13:12:02.259Z,19.00
2023-03-13T13:14:31.370Z,18.46
2023-03-13T13:17:16.517Z,18.80
2023-03-13T13:19:46.593Z,18.98
2023-03-13T13:22:37.042Z,19.02
2023-03-13T13:25:11.328Z,18.84
2023-03-13T13:27:39.304Z,18.60
2023-03-13T13:30:19.644Z,17.98
2023-03-13T13:32:48.996Z,17.74
2023-03-13T13:35:26.060Z,17.68
2023-03-13T13:37:56.339Z,17.38
2023-03-13T13:40:29.335Z,17.10
2023-03-13T13:42:57.979Z,17.36
2023-03-13T13:46:12.483Z,17.58
2023-03-13T13:48:43.436Z,17.72
2023-03-13T13:51:11.693Z,17.40
2023-03-13T13:53:44.899Z,17.52
2023-03-13T13:56:29.786Z,17.62
2023-03-13T13:59:22.048Z,17.54
2023-03-13T14:01:52.347Z,17.58
2023-03-13T14:04:27.946Z,16.94
2023-03-13T14:06:57.909Z,16.40
2023-03-13T14:09:28.884Z,16.00
2023-03-13T14:11:57.050Z,15.60
2023-03-13T14:14:25.054Z,15.20
2023-03-13T14:16:57.050Z,14.72
2023-03-13T14:19:40.868Z,14.56
2023-03-13T14:22:10.325Z,14.80
2023-03-13T14:24:38.347Z,14.90
2023-03-13T14:27:19.492Z,15.10
2023-03-13T14:30:09.411Z,15.20
2023-03-13T14:32:38.470Z,15.24
2023-03-13T14:35:07.274Z,15.30
2023-03-13T14:37:45.171Z,15.44
2023-03-13T14:40:21.546Z,15.50
2023-03-13T14:42:51.791Z,15.50
2023-03-13T14:45:34.102Z,15.42
2023-03-13T14:48:05.798Z,15.30
2023-03-13T14:50:33.920Z,14.90
2023-03-13T14:53:05.571Z,14.52
2023-03-13T14:55:35.378Z,14.00
2023-03-13T14:58:27.827Z,13.54
2023-03-13T15:00:56.342Z,13.00
2023-03-13T15:03:28.875Z,12.90
2023-03-13T15:06:07.629Z,12.78
2023-03-13T15:08:39.787Z,12.30
2023-03-13T15:11:22.486Z,12.22
2023-03-13T15:13:50.559Z,12.00
2023-03-13T15:16:22.858Z,11.96
2023-03-13T15:18:51.768Z,11.80
2023-03-13T15:21:25.148Z,11.70
2023-03-13T15:23:56.195Z,11.50
2023-03-13T15:26:25.062Z,11.48
2023-03-13T15:28:53.415Z,11.40
2023-03-13T15:31:25.347Z,11.30
2023-03-13T15:33:58.890Z,11.10
2023-03-13T15:36:27.824Z,11.08
2023-03-13T15:38:56.388Z,11.10
2023-03-13T15:41:24.527Z,11.20
2023-03-13T15:43:52.940Z,11.20
2023-03-13T15:46:21.165Z,11.10
2023-03-13T15:48:51.614Z,11.00
2023-03-13T15:51:21.112Z,11.00
2023-03-13T15:53:49.293Z,10.90
2023-03-13T15:56:19.053Z,10.90
2023-03-13T15:58:47.625Z,10.80
2023-03-13T16:01:17.247Z,10.60
2023-03-13T16:03:45.529Z,10.50
2023-03-13T16:06:18.519Z,10.44
2023-03-13T16:08:47.046Z,10.28
2023-03-13T16:11:16.328Z,10.18
2023-03-13T16:13:44.356Z,10.10
2023-03-13T16:16:18.389Z,10.02
2023-03-13T16:18:48.179Z,9.90
2023-03-13T16:21:21.957Z,9.80
2023-03-13T16:23:50.097Z,9.60
2023-03-13T16:26:20.118Z,9.56
2023-03-13T16:28:48.358Z,9.50
2023-03-13T16:31:25.092Z,9.32
2023-03-13T16:33:54.155Z,9.28
2023-03-13T16:36:24.679Z,9.20
2023-03-13T16:38:52.799Z,9.10
2023-03-13T16:41:22.599Z,9.00
2023-03-13T16:43:50.933Z,8.90
2023-03-13T16:46:21.407Z,8.80
2023-03-13T16:48:50.303Z,8.70
2023-03-13T16:51:20.845Z,8.68
2023-03-13T16:53:50.137Z,8.60
2023-03-13T16:56:39.419Z,8.50
2023-03-13T16:59:12.634Z,8.30
2023-03-13T17:01:41.041Z,8.30
2023-03-13T17:04:09.379Z,8.20
2023-03-13T17:06:38.966Z,8.18
2023-03-13T17:09:11.905Z,8.10
2023-03-13T17:11:39.950Z,8.00
2023-03-13T17:14:08.541Z,7.90
2023-03-13T17:16:39.123Z,7.80
2023-03-13T17:19:07.692Z,7.80
2023-03-13T17:21:37.010Z,7.70
2023-03-13T17:24:07.801Z,7.68
2023-03-13T17:26:37.442Z,7.70
2023-03-13T17:29:06.127Z,7.70
2023-03-13T17:31:38.639Z,7.66
2023-03-13T17:34:07.386Z,7.60
2023-03-13T17:36:35.775Z,7.60
2023-03-13T17:39:05.746Z,7.60
2023-03-13T17:41:35.139Z,7.50
2023-03-13T17:44:07.471Z,7.40
2023-03-13T17:46:39.773Z,7.38
2023-03-13T17:49:07.893Z,7.30
2023-03-13T17:51:36.796Z,7.20
2023-03-13T17:54:04.973Z,7.10
2023-03-13T17:56:36.520Z,7.10
2023-03-13T17:59:05.935Z,7.00
2023-03-13T18:01:34.820Z,6.90
2023-03-13T18:04:03.200Z,6.90
2023-03-13T18:06:33.226Z,6.80
2023-03-13T18:09:03.056Z,6.80
2023-03-13T18:11:31.096Z,6.80
2023-03-13T18:13:59.283Z,6.80
2023-03-13T18:16:37.679Z,6.80
2023-03-13T18:19:23.908Z,6.80
2023-03-13T18:21:54.205Z,6.80
2023-03-13T18:24:22.605Z,7.00
2023-03-13T18:26:50.867Z,7.10
2023-03-13T18:29:26.389Z,7.20
2023-03-13T18:31:58.983Z,7.30
2023-03-13T18:34:27.687Z,7.42
2023-03-13T18:36:55.912Z,7.50
2023-03-13T18:39:24.033Z,7.40
2023-03-13T18:41:52.839Z,7.30
2023-03-13T18:44:21.344Z,7.10
2023-03-13T18:46:51.989Z,7.00
2023-03-13T18:49:21.787Z,6.90
2023-03-13T18:51:51.038Z,6.88
2023-03-13T18:54:19.131Z,6.80
2023-03-13T18:56:50.377Z,6.70
2023-03-13T18:59:20.833Z,6.68
2023-03-13T19:01:49.188Z,6.60
2023-03-13T19:04:18.004Z,6.50
2023-03-13T19:06:46.261Z,6.40
2023-03-13T19:09:41.602Z,6.34
2023-03-13T19:12:11.077Z,6.28
2023-03-13T19:14:39.397Z,6.30
2023-03-13T19:17:13.812Z,6.30
2023-03-13T19:19:41.823Z,6.30
2023-03-13T19:22:11.983Z,6.30
2023-03-13T19:24:40.169Z,6.30
2023-03-13T19:27:13.188Z,6.30
2023-03-13T19:29:41.332Z,6.30
2023-03-13T19:32:16.442Z,6.22
2023-03-13T19:34:44.624Z,6.20
2023-03-13T19:37:15.391Z,6.20
2023-03-13T19:39:43.546Z,6.16
2023-03-13T19:42:11.783Z,6.10
2023-03-13T19:44:40.964Z,6.10
2023-03-13T19:47:14.055Z,6.00
2023-03-13T19:49:42.128Z,5.90
2023-03-13T19:52:10.300Z,5.90
2023-03-13T19:54:38.350Z,5.80
2023-03-13T19:57:07.228Z,5.80
2023-03-13T19:59:38.829Z,5.70
2023-03-13T20:02:08.973Z,5.70
2023-03-13T20:04:37.574Z,5.70
2023-03-13T20:07:05.632Z,5.70
2023-03-13T20:09:35.492Z,5.80
2023-03-13T20:12:05.008Z,5.80
2023-03-13T20:14:33.290Z,5.80
2023-03-13T20:17:01.285Z,5.80
2023-03-13T20:19:30.084Z,5.80
2023-03-13T20:22:03.799Z,5.70
2023-03-13T20:24:33.849Z,5.70
2023-03-13T20:27:03.799Z,5.70
2023-03-13T20:29:33.283Z,5.60
2023-03-13T20:32:04.642Z,5.60
2023-03-13T20:34:32.708Z,5.60
2023-03-13T20:37:00.771Z,5.56
2023-03-13T20:39:28.966Z,5.50
2023-03-13T20:41:57.590Z,5.50
2023-03-13T20:44:25.748Z,5.52
2023-03-13T20:46:54.066Z,5.60
2023-03-13T20:49:22.910Z,5.52
2023-03-13T20:51:50.989Z,5.58
2023-03-13T20:54:19.346Z,5.50
2023-03-13T20:56:47.377Z,5.50
2023-03-13T20:59:15.476Z,5.58
2023-03-13T21:01:44.154Z,5.52
2023-03-13T21:04:12.678Z,5.60
2023-03-13T21:06:41.008Z,5.52
2023-03-13T21:09:09.004Z,5.50
2023-03-13T21:11:37.400Z,5.50
2023-03-13T21:14:05.431Z,5.56
2023-03-13T21:16:33.745Z,5.58
2023-03-13T21:19:02.096Z,5.58
2023-03-13T21:21:30.270Z,5.60
2023-03-13T21:23:58.325Z,5.60
2023-03-13T21:26:26.623Z,5.60
2023-03-13T21:28:54.686Z,5.60
2023-03-13T21:31:22.938Z,5.60
2023-03-13T21:33:51.448Z,5.60
2023-03-13T21:36:21.049Z,5.60
2023-03-13T21:38:49.799Z,5.60
2023-03-13T21:41:19.354Z,5.60
2023-03-13T21:43:47.648Z,5.60
2023-03-13T21:46:17.114Z,5.60
2023-03-13T21:51:18.558Z,5.50
2023-03-13T21:53:46.682Z,5.40
2023-03-13T21:56:15.976Z,5.36
2023-03-13T21:58:45.614Z,5.28
2023-03-13T22:01:14.396Z,5.20
2023-03-13T22:03:42.852Z,5.10
2023-03-13T22:06:14.925Z,5.00
2023-03-13T22:08:43.302Z,4.94
2023-03-13T22:11:11.469Z,4.82
2023-03-13T22:13:39.654Z,4.74
2023-03-13T22:16:11.708Z,4.70
2023-03-13T22:18:43.356Z,4.64
2023-03-13T22:21:13.079Z,4.52
2023-03-13T22:23:44.620Z,4.50
2023-03-13T22:26:13.204Z,4.50
2023-03-13T22:28:41.404Z,4.50
2023-03-13T22:31:10.079Z,4.40
2023-03-13T22:33:38.200Z,4.36
2023-03-13T22:36:07.266Z,4.30
2023-03-13T22:38:39.182Z,4.30
2023-03-13T22:41:09.006Z,4.30
2023-03-13T22:43:37.196Z,4.28
2023-03-13T22:46:07.228Z,4.30
2023-03-13T22:48:35.796Z,4.20
2023-03-13T22:51:08.451Z,4.20
2023-03-13T22:53:37.769Z,4.20
2023-03-13T22:56:06.470Z,4.20
2023-03-13T22:58:36.477Z,4.10
2023-03-13T23:01:17.649Z,4.10
2023-03-13T23:03:46.031Z,4.08
2023-03-13T23:06:19.432Z,4.06
2023-03-13T23:08:47.564Z,4.06
2023-03-13T23:11:16.292Z,4.00
2023-03-13T23:13:44.462Z,4.00
2023-03-13T23:16:13.251Z,4.10
2023-03-13T23:18:41.442Z,4.10
2023-03-13T23:21:12.009Z,4.00
2023-03-13T23:23:40.338Z,4.00
2023-03-13T23:26:10.474Z,4.00
2023-03-13T23:28:39.036Z,4.00
2023-03-13T23:31:12.173Z,4.00
2023-03-13T23:33:40.523Z,3.90
2023-03-13T23:36:10.516Z,3.90
2023-03-13T23:38:38.582Z,3.98
2023-03-13T23:41:11.119Z,4.00
2023-03-13T23:43:39.659Z,4.00
2023-03-13T23:46:21.434Z,4.02
2023-03-13T23:48:52.796Z,4.10
2023-03-13T23:51:20.925Z,4.10
2023-03-13T23:53:49.032Z,4.20
2023-03-13T23:56:17.119Z,4.20
2023-03-13T23:58:45.708Z,4.20
